createdAt,value
2023-04-06T00:05:54.454Z,101648.63
2023-04-06T00:12:57.478Z,101644.13
2023-04-06T00:19:59.091Z,101636.97
2023-04-06T00:27:00.856Z,101633.31
2023-04-06T00:34:02.453Z,101630.72
2023-04-06T00:41:04.882Z,101632.09
2023-04-06T00:48:07.100Z,101624.09
2023-04-06T00:55:09.018Z,101629.03
2023-04-06T01:02:15.991Z,101630.25
2023-04-06T01:09:22.958Z,101627.69
2023-04-06T01:16:28.154Z,101624.00
2023-04-06T01:23:56.130Z,101617.53
2023-04-06T01:31:07.756Z,101614.91
2023-04-06T01:38:20.512Z,101620.88
2023-04-06T01:45:23.750Z,101620.03
2023-04-06T01:52:28.206Z,101629.00
2023-04-06T01:59:30.548Z,101619.41
2023-04-06T02:06:34.199Z,101620.59
2023-04-06T02:13:37.977Z,101615.84
2023-04-06T02:20:39.641Z,101623.09
2023-04-06T02:27:41.277Z,101617.44
2023-04-06T02:34:42.873Z,101622.19
2023-04-06T02:41:45.593Z,101623.97
2023-04-06T02:48:49.943Z,101625.19
2023-04-06T02:55:51.650Z,101622.09
2023-04-06T03:02:53.454Z,101628.00
2023-04-06T03:09:55.499Z,101635.94
2023-04-06T03:16:57.153Z,101634.41
2023-04-06T03:24:00.464Z,101637.28
2023-04-06T03:31:02.509Z,101636.09
2023-04-06T03:38:25.898Z,101641.06
2023-04-06T03:45:28.844Z,101647.25
2023-04-06T03:52:30.548Z,101652.38
2023-04-06T03:59:32.248Z,101661.31
2023-04-06T04:06:33.861Z,101659.72
2023-04-06T04:13:35.540Z,101674.81
2023-04-06T04:20:40.408Z,101679.53
2023-04-06T04:27:43.737Z,101676.16
2023-04-06T04:34:45.637Z,101678.63
2023-04-06T04:41:57.305Z,101679.47
2023-04-06T04:48:59.294Z,101687.09
2023-04-06T04:56:02.377Z,101691.09
2023-04-06T05:03:04.995Z,101690.56
2023-04-06T05:10:10.803Z,101690.53
2023-04-06T05:17:22.043Z,101684.19
2023-04-06T05:24:26.438Z,101688.44
2023-04-06T05:31:30.443Z,101697.69
2023-04-06T05:38:34.235Z,101704.50
2023-04-06T05:45:45.752Z,101710.94
2023-04-06T05:52:47.642Z,101701.66
2023-04-06T05:59:52.659Z,101710.78
2023-04-06T06:06:56.161Z,101699.63
2023-04-06T06:14:03.562Z,101712.19
2023-04-06T06:21:08.918Z,101711.09
2023-04-06T06:28:10.633Z,101705.56
2023-04-06T06:35:12.611Z,101713.94
2023-04-06T06:42:14.800Z,101707.81
2023-04-06T06:49:26.820Z,101716.69
2023-04-06T06:56:28.861Z,101720.03
2023-04-06T07:03:31.710Z,101715.78
2023-04-06T07:10:33.422Z,101714.06
2023-04-06T07:17:35.151Z,101711.53
2023-04-06T07:24:36.891Z,101713.72
2023-04-06T07:31:38.566Z,101708.03
2023-04-06T07:38:40.424Z,101700.22
2023-04-06T07:45:42.172Z,101694.59
2023-04-06T07:52:44.323Z,101691.09
2023-04-06T07:59:46.313Z,101693.88
2023-04-06T08:06:47.926Z,101691.31
2023-04-06T08:13:49.493Z,101692.06
2023-04-06T08:20:51.117Z,101694.59
2023-04-06T08:27:52.857Z,101691.44
2023-04-06T08:34:55.954Z,101678.78
2023-04-06T08:41:58.852Z,101677.69
2023-04-06T08:49:01.950Z,101672.72
2023-04-06T08:56:05.718Z,101678.94
2023-04-06T09:03:07.546Z,101665.41
2023-04-06T09:10:09.728Z,101672.56
2023-04-06T09:17:21.226Z,101660.13
2023-04-06T09:24:27.047Z,101647.59
2023-04-06T09:31:30.213Z,101651.72
2023-04-06T09:38:31.962Z,101642.44
2023-04-06T09:45:33.573Z,101638.53
2023-04-06T09:52:39.403Z,101629.50
2023-04-06T09:59:43.859Z,101630.84
2023-04-06T10:06:45.488Z,101625.75
2023-04-06T10:13:48.647Z,101612.78
2023-04-06T10:20:52.472Z,101615.09
2023-04-06T10:28:00.623Z,101614.47
2023-04-06T10:35:09.410Z,101621.78
2023-04-06T10:42:11.586Z,101628.38
2023-04-06T10:49:13.325Z,101611.69
2023-04-06T10:56:16.270Z,101595.94
2023-04-06T11:03:17.992Z,101594.22
2023-04-06T11:10:23.649Z,101591.56
2023-04-06T11:17:32.257Z,101573.13
2023-04-06T11:24:33.812Z,101585.66
2023-04-06T11:31:42.114Z,101565.63
2023-04-06T11:38:43.686Z,101559.16
2023-04-06T11:45:45.884Z,101546.88
2023-04-06T11:52:48.808Z,101551.13
2023-04-06T11:59:50.725Z,101577.00
2023-04-06T12:06:52.335Z,101559.66
2023-04-06T12:13:54.350Z,101556.84
2023-04-06T12:20:56.000Z,101539.22
2023-04-06T12:27:57.756Z,101534.69
2023-04-06T12:34:59.312Z,101526.69
2023-04-06T12:42:03.681Z,101527.19
2023-04-06T12:49:05.322Z,101523.88
2023-04-06T12:56:18.223Z,101515.56
2023-04-06T13:03:20.407Z,101513.66
2023-04-06T13:10:22.017Z,101500.81
2023-04-06T13:17:23.789Z,101504.88
2023-04-06T13:24:25.429Z,101495.53
2023-04-06T13:31:27.171Z,101491.69
2023-04-06T13:38:28.839Z,101492.19
2023-04-06T13:45:30.441Z,101479.56
2023-04-06T13:52:32.016Z,101476.88
2023-04-06T13:59:34.731Z,101477.25
2023-04-06T14:06:36.332Z,101480.72
2023-04-06T14:13:37.846Z,101472.22
2023-04-06T14:20:39.451Z,101472.22
2023-04-06T14:27:41.264Z,101473.78
2023-04-06T14:34:42.894Z,101460.66
2023-04-06T14:41:44.457Z,101460.91
2023-04-06T14:48:46.281Z,101459.06
2023-04-06T14:55:47.870Z,101459.75
2023-04-06T15:02:49.573Z,101453.09
2023-04-06T15:09:51.230Z,101447.69
2023-04-06T15:16:52.783Z,101448.84
2023-04-06T15:23:54.793Z,101447.88
2023-04-06T15:30:56.734Z,101449.97
2023-04-06T15:37:58.508Z,101451.25
2023-04-06T15:45:00.149Z,101455.44
2023-04-06T15:52:01.779Z,101451.59
2023-04-06T15:59:04.229Z,101446.69
2023-04-06T16:06:08.969Z,101461.78
2023-04-06T16:13:11.160Z,101457.81
2023-04-06T16:20:15.634Z,101455.31
2023-04-06T16:27:17.627Z,101459.66
2023-04-06T16:34:19.202Z,101462.25
2023-04-06T16:41:21.511Z,101472.63
2023-04-06T16:48:24.176Z,101460.59
2023-04-06T16:55:25.713Z,101455.25
2023-04-06T17:02:27.380Z,101469.59
2023-04-06T17:09:29.022Z,101473.00
2023-04-06T17:16:30.816Z,101468.22
2023-04-06T17:23:32.448Z,101472.78
2023-04-06T17:30:34.530Z,101481.56
2023-04-06T17:37:36.378Z,101491.19
2023-04-06T17:44:38.536Z,101493.34
2023-04-06T17:51:40.136Z,101504.78
2023-04-06T17:58:41.720Z,101510.06
2023-04-06T18:05:43.325Z,101510.69
2023-04-06T18:12:44.956Z,101508.91
2023-04-06T18:19:47.124Z,101516.84
2023-04-06T18:26:48.743Z,101521.63
2023-04-06T18:33:52.013Z,101530.09
2023-04-06T18:40:55.705Z,101532.38
2023-04-06T18:47:57.310Z,101532.66
2023-04-06T18:54:58.892Z,101537.72
2023-04-06T19:02:00.590Z,101541.53
2023-04-06T19:09:04.586Z,101559.59
2023-04-06T19:16:12.477Z,101553.56
2023-04-06T19:23:14.212Z,101554.44
2023-04-06T19:30:16.108Z,101550.81
2023-04-06T19:37:17.703Z,101552.97
2023-04-06T19:44:19.259Z,101550.09
2023-04-06T19:51:20.809Z,101549.53
2023-04-06T19:58:23.238Z,101546.81
2023-04-06T20:05:24.774Z,101545.28
2023-04-06T20:12:26.380Z,101558.38
2023-04-06T20:19:27.952Z,101550.06
2023-04-06T20:26:32.312Z,101555.19
2023-04-06T20:33:36.925Z,101554.16
2023-04-06T20:40:38.439Z,101564.28
2023-04-06T20:47:40.336Z,101562.53
2023-04-06T20:54:41.972Z,101552.25
2023-04-06T21:01:44.224Z,101550.28
2023-04-06T21:08:46.064Z,101551.41
2023-04-06T21:15:48.376Z,101562.72
2023-04-06T21:22:50.020Z,101552.91
2023-04-06T21:29:51.613Z,101553.03
2023-04-06T21:36:53.274Z,101549.88
2023-04-06T21:43:54.878Z,101552.31
2023-04-06T21:50:56.428Z,101550.28
2023-04-06T21:57:57.957Z,101552.41
2023-04-06T22:04:59.559Z,101545.47
2023-04-06T22:12:01.303Z,101534.41
2023-04-06T22:19:02.863Z,101538.41
2023-04-06T22:26:04.464Z,101537.78
2023-04-06T22:33:06.625Z,101535.28
2023-04-06T22:40:08.779Z,101531.72
2023-04-06T22:47:10.393Z,101519.47
2023-04-06T22:54:12.352Z,101522.09
2023-04-06T23:01:14.111Z,101527.53
2023-04-06T23:08:15.713Z,101512.56
2023-04-06T23:15:17.338Z,101519.50
2023-04-06T23:22:18.895Z,101521.75
2023-04-06T23:29:20.557Z,101520.22
2023-04-06T23:36:22.075Z,101523.09
2023-04-06T23:43:23.620Z,101519.00
2023-04-06T23:50:25.292Z,101521.25
2023-04-06T23:57:26.949Z,101515.31
